Time;durP1;ratioP1;P1;durP2;ratioP2;P2;SDS_P1;SDS_P2;PMS_P1;PMS_P2;Temp;Humidity;BMP_temperature;BMP_pressure;BME280_temperature;BME280_humidity;BME280_pressure;Samples;Min_cycle;Max_cycle;Signal;HPM_P1;HPM_P2
2021/10/14 00:00:25;;;;;;;12.90;4.10;;;9.30;99.90;;;;;;2113066;28;20028;-68
2021/10/14 00:01:25;;;;;;;8.38;4.15;;;9.20;99.90;;;;;;2117946;28;20141;-68
2021/10/14 00:02:26;;;;;;;9.65;4.43;;;9.10;99.90;;;;;;2125185;27;20102;-68
2021/10/14 00:03:27;;;;;;;10.05;4.75;;;9.00;99.90;;;;;;2125682;27;20080;-68
2021/10/14 00:04:28;;;;;;;10.23;4.65;;;8.90;99.90;;;;;;2121216;27;20690;-68
2021/10/14 00:05:29;;;;;;;7.53;4.72;;;8.80;99.90;;;;;;2120312;27;20543;-68
2021/10/14 00:06:30;;;;;;;8.45;4.65;;;8.70;99.90;;;;;;2111335;28;20024;-68
2021/10/14 00:07:30;;;;;;;9.90;5.05;;;8.70;99.90;;;;;;2113743;28;20024;-68
2021/10/14 00:08:31;;;;;;;10.27;5.15;;;8.60;99.90;;;;;;2119785;28;20648;-68
2021/10/14 00:09:32;;;;;;;12.40;5.65;;;8.50;99.90;;;;;;2119405;28;20015;-68
2021/10/14 00:10:32;;;;;;;10.15;4.75;;;8.50;99.90;;;;;;2120416;27;20023;-68
2021/10/14 00:11:33;;;;;;;12.50;5.38;;;8.50;99.90;;;;;;2120418;27;20954;-68
2021/10/14 00:12:34;;;;;;;7.38;5.00;;;8.40;99.90;;;;;;2125327;27;20160;-68
2021/10/14 00:13:34;;;;;;;9.45;4.88;;;8.40;99.90;;;;;;2122148;27;20281;-67
2021/10/14 00:14:35;;;;;;;10.60;5.55;;;8.30;99.90;;;;;;2118189;27;20514;-68
2021/10/14 00:15:36;;;;;;;13.35;5.25;;;8.30;99.90;;;;;;2120372;27;20075;-68
2021/10/14 00:16:37;;;;;;;9.30;4.75;;;8.30;99.90;;;;;;2119421;27;20023;-68
2021/10/14 00:17:37;;;;;;;11.52;4.80;;;8.20;99.90;;;;;;2111019;28;20016;-68
2021/10/14 00:18:38;;;;;;;9.43;5.40;;;8.20;99.90;;;;;;2105550;28;20028;-68
2021/10/14 00:19:40;;;;;;;12.23;4.93;;;8.20;99.90;;;;;;2111104;28;20545;-68
2021/10/14 00:20:40;;;;;;;9.93;5.07;;;8.20;99.90;;;;;;2117570;27;20034;-68
2021/10/14 00:21:41;;;;;;;11.68;5.60;;;8.10;99.90;;;;;;2117292;27;20027;-68
2021/10/14 00:22:42;;;;;;;14.05;5.55;;;8.10;99.90;;;;;;2120305;27;20514;-69
2021/10/14 00:23:42;;;;;;;11.10;5.22;;;8.10;99.90;;;;;;2117495;27;20581;-68
2021/10/14 00:24:43;;;;;;;10.63;4.97;;;8.00;99.90;;;;;;2108616;28;20077;-68
2021/10/14 00:25:44;;;;;;;13.38;5.38;;;8.00;99.90;;;;;;2107988;28;20503;-68
2021/10/14 00:26:44;;;;;;;10.32;5.57;;;8.00;99.90;;;;;;2114745;28;20047;-68
2021/10/14 00:27:49;;;;;;;11.52;5.50;;;7.90;99.90;;;;;;2105832;28;20027;-68
2021/10/14 00:28:50;;;;;;;12.52;5.82;;;7.90;99.90;;;;;;2103562;28;20024;-68
2021/10/14 00:29:50;;;;;;;13.20;5.30;;;7.80;99.90;;;;;;2113612;28;20091;-68
2021/10/14 00:30:51;;;;;;;14.20;5.60;;;7.80;99.90;;;;;;2118760;27;20015;-68
2021/10/14 00:31:52;;;;;;;12.73;5.80;;;7.80;99.90;;;;;;2117616;27;20020;-68
2021/10/14 00:32:52;;;;;;;9.70;5.03;;;7.80;99.90;;;;;;2111952;28;20160;-68
2021/10/14 00:33:54;;;;;;;10.98;5.47;;;7.70;99.90;;;;;;2108012;28;20025;-68
2021/10/14 00:34:54;;;;;;;10.00;5.32;;;7.70;99.90;;;;;;2114446;28;20571;-68
2021/10/14 00:35:55;;;;;;;11.45;6.40;;;7.70;99.90;;;;;;2114411;28;20049;-69
2021/10/14 00:36:56;;;;;;;14.10;6.72;;;7.60;99.90;;;;;;2106935;28;20028;-69
2021/10/14 00:37:56;;;;;;;15.48;6.28;;;7.60;99.90;;;;;;2106271;28;20057;-68
2021/10/14 00:38:57;;;;;;;13.27;5.93;;;7.60;99.90;;;;;;2114081;27;20077;-68
2021/10/14 00:39:58;;;;;;;14.32;5.53;;;7.60;99.90;;;;;;2123057;27;20851;-68
2021/10/14 00:40:59;;;;;;;13.10;5.57;;;7.50;99.90;;;;;;2114642;27;20131;-69
2021/10/14 00:41:59;;;;;;;11.27;5.63;;;7.50;99.90;;;;;;2114727;28;20020;-68
2021/10/14 00:43:00;;;;;;;12.02;5.93;;;7.50;99.90;;;;;;2114721;28;20047;-68
2021/10/14 00:44:01;;;;;;;10.02;5.15;;;7.50;99.90;;;;;;2112909;28;20508;-68
2021/10/14 00:45:03;;;;;;;9.23;5.20;;;7.50;99.90;;;;;;2119581;27;20027;-68
2021/10/14 00:46:04;;;;;;;8.65;5.00;;;7.50;99.90;;;;;;2122723;27;20067;-68
2021/10/14 00:47:05;;;;;;;9.07;4.85;;;7.50;99.90;;;;;;2120792;27;20475;-68
2021/10/14 00:48:05;;;;;;;10.70;4.72;;;7.50;99.90;;;;;;2116471;27;20023;-68
2021/10/14 00:49:06;;;;;;;10.65;5.50;;;7.50;99.90;;;;;;2121605;27;20023;-68
2021/10/14 00:50:08;;;;;;;13.93;5.30;;;7.50;99.90;;;;;;2117378;27;20019;-68
2021/10/14 00:51:10;;;;;;;9.68;5.28;;;7.50;99.90;;;;;;2114257;28;20066;-68
2021/10/14 00:52:12;;;;;;;8.60;4.90;;;7.40;99.90;;;;;;2105502;28;20081;-68
2021/10/14 00:53:13;;;;;;;13.45;5.28;;;7.40;99.90;;;;;;2105431;28;20581;-68
2021/10/14 00:54:17;;;;;;;13.85;5.47;;;7.40;99.90;;;;;;2105575;28;20024;-69
2021/10/14 00:55:19;;;;;;;8.73;4.85;;;7.40;99.90;;;;;;2107312;28;20024;-68
2021/10/14 00:56:19;;;;;;;12.82;5.40;;;7.40;99.90;;;;;;2122358;27;20019;-69
2021/10/14 00:57:20;;;;;;;11.13;5.90;;;7.30;99.90;;;;;;2122807;27;20031;-68
2021/10/14 00:58:21;;;;;;;12.52;6.03;;;7.30;99.90;;;;;;2117153;27;20016;-69
2021/10/14 00:59:22;;;;;;;10.05;5.93;;;7.30;99.90;;;;;;2119641;27;20028;-69
2021/10/14 01:00:22;;;;;;;9.90;5.93;;;7.40;99.90;;;;;;2123408;27;20106;-69
2021/10/14 01:01:23;;;;;;;14.55;6.53;;;7.30;99.90;;;;;;2113778;27;20040;-68
2021/10/14 01:02:24;;;;;;;11.38;5.40;;;7.30;99.90;;;;;;2117912;27;20559;-68
2021/10/14 01:03:24;;;;;;;15.77;6.32;;;7.30;99.90;;;;;;2113711;28;20106;-68
2021/10/14 01:04:25;;;;;;;11.55;5.60;;;7.30;99.90;;;;;;2097064;28;20043;-69
2021/10/14 01:05:26;;;;;;;14.13;6.07;;;7.30;99.90;;;;;;2105627;28;20016;-68
2021/10/14 01:06:27;;;;;;;8.75;5.50;;;7.30;99.90;;;;;;2120207;27;20015;-68
2021/10/14 01:07:29;;;;;;;11.27;5.20;;;7.30;99.90;;;;;;2113710;28;20077;-68
2021/10/14 01:08:30;;;;;;;14.27;5.97;;;7.30;99.90;;;;;;2114101;28;20613;-68
2021/10/14 01:09:31;;;;;;;14.63;5.47;;;7.30;99.90;;;;;;2122510;27;20072;-68
2021/10/14 01:10:31;;;;;;;13.15;5.55;;;7.30;99.90;;;;;;2113966;28;20042;-69
2021/10/14 01:11:32;;;;;;;11.60;5.45;;;7.30;99.90;;;;;;2111100;28;20126;-68
2021/10/14 01:12:34;;;;;;;10.05;5.80;;;7.30;99.90;;;;;;2120910;27;20391;-68
2021/10/14 01:13:34;;;;;;;8.10;5.88;;;7.20;99.90;;;;;;2116728;27;20479;-68
2021/10/14 01:14:35;;;;;;;10.85;5.55;;;7.30;99.90;;;;;;2113460;28;20031;-68
2021/10/14 01:15:36;;;;;;;13.98;5.78;;;7.30;99.90;;;;;;2113883;28;20028;-69
2021/10/14 01:16:41;;;;;;;11.23;5.35;;;7.30;99.90;;;;;;2116488;27;20098;-68
2021/10/14 01:17:42;;;;;;;10.55;5.40;;;7.20;99.90;;;;;;2114038;28;20024;-67
2021/10/14 01:18:42;;;;;;;8.52;5.20;;;7.20;99.90;;;;;;2119795;27;20029;-69
2021/10/14 01:19:44;;;;;;;14.02;5.72;;;7.20;99.90;;;;;;2109600;28;20021;-69
2021/10/14 01:20:44;;;;;;;13.65;5.88;;;7.20;99.90;;;;;;2112969;28;20034;-69
2021/10/14 01:21:48;;;;;;;12.20;6.00;;;7.20;99.90;;;;;;2122719;27;20610;-68
2021/10/14 01:22:49;;;;;;;12.13;6.28;;;7.20;99.90;;;;;;2122776;27;20023;-68
2021/10/14 01:23:50;;;;;;;14.25;6.22;;;7.20;99.90;;;;;;2114906;28;20012;-68
2021/10/14 01:24:50;;;;;;;12.57;5.82;;;7.20;99.90;;;;;;2119225;28;20012;-69
2021/10/14 01:25:51;;;;;;;14.00;5.88;;;7.10;99.90;;;;;;2114488;28;20130;-68
2021/10/14 01:26:51;;;;;;;12.07;5.35;;;7.10;99.90;;;;;;2119323;27;20015;-68
2021/10/14 01:27:52;;;;;;;11.95;5.97;;;7.10;99.90;;;;;;2115333;27;20104;-68
2021/10/14 01:28:53;;;;;;;13.25;5.55;;;7.10;99.90;;;;;;2118916;27;20107;-68
2021/10/14 01:29:54;;;;;;;10.85;5.80;;;7.00;99.90;;;;;;2113017;28;20027;-68
2021/10/14 01:30:55;;;;;;;9.30;6.15;;;7.10;99.90;;;;;;2113828;28;20713;-68
2021/10/14 01:31:55;;;;;;;12.98;5.10;;;7.00;99.90;;;;;;2117533;27;20102;-69
2021/10/14 01:32:56;;;;;;;9.13;6.35;;;7.10;99.90;;;;;;2105353;28;20032;-68
2021/10/14 01:33:57;;;;;;;11.32;5.57;;;7.10;99.90;;;;;;2105006;28;20016;-68
2021/10/14 01:34:57;;;;;;;12.63;6.63;;;7.00;99.90;;;;;;2113280;27;20015;-68
2021/10/14 01:35:58;;;;;;;11.98;6.13;;;7.00;99.90;;;;;;2122401;27;20473;-69
2021/10/14 01:36:59;;;;;;;11.05;5.78;;;7.00;99.90;;;;;;2122316;27;20351;-69
2021/10/14 01:38:00;;;;;;;13.20;5.60;;;6.90;99.90;;;;;;2122944;27;20019;-68
2021/10/14 01:39:00;;;;;;;11.45;5.45;;;6.90;99.90;;;;;;2122563;27;20019;-69
2021/10/14 01:40:02;;;;;;;8.35;5.50;;;6.90;99.90;;;;;;2122297;27;20015;-69
2021/10/14 01:41:03;;;;;;;11.52;6.55;;;7.00;99.90;;;;;;2122840;27;20072;-68
2021/10/14 01:42:04;;;;;;;9.20;5.68;;;7.00;99.90;;;;;;2118294;27;20449;-68
2021/10/14 01:43:04;;;;;;;10.20;5.95;;;7.00;99.90;;;;;;2114433;28;20055;-68
2021/10/14 01:44:05;;;;;;;17.05;6.28;;;7.00;99.90;;;;;;2115008;27;20579;-68
2021/10/14 01:45:06;;;;;;;10.13;6.00;;;7.00;99.90;;;;;;2121958;27;20177;-68
2021/10/14 01:46:08;;;;;;;7.80;4.43;;;7.00;99.90;;;;;;2122603;27;20026;-69
2021/10/14 01:47:08;;;;;;;13.57;7.07;;;7.10;99.90;;;;;;2111208;27;20012;-68
2021/10/14 01:48:09;;;;;;;14.60;7.03;;;7.10;99.90;;;;;;2106011;28;20027;-68
2021/10/14 01:49:10;;;;;;;12.30;6.43;;;7.10;99.90;;;;;;2105257;28;20020;-68
2021/10/14 01:50:10;;;;;;;18.85;6.75;;;7.20;99.90;;;;;;2105901;28;20472;-69
2021/10/14 01:51:11;;;;;;;13.90;6.75;;;7.20;99.90;;;;;;2105801;28;20102;-68
2021/10/14 01:52:12;;;;;;;15.23;6.80;;;7.20;99.90;;;;;;2110703;28;20024;-69
2021/10/14 01:53:12;;;;;;;11.23;6.95;;;7.20;99.90;;;;;;2114004;28;20081;-68
2021/10/14 01:54:13;;;;;;;18.92;6.70;;;7.30;99.90;;;;;;2113903;28;20518;-69
2021/10/14 01:55:14;;;;;;;17.02;6.82;;;7.30;99.90;;;;;;2114024;28;20464;-68
2021/10/14 01:56:14;;;;;;;14.52;7.05;;;7.30;99.90;;;;;;2113915;28;20028;-68
2021/10/14 01:57:15;;;;;;;18.63;7.30;;;7.30;99.90;;;;;;2111942;28;20542;-68
2021/10/14 01:58:18;;;;;;;15.20;6.47;;;7.20;99.90;;;;;;2105919;28;20030;-68
2021/10/14 01:59:19;;;;;;;15.15;6.45;;;7.20;99.90;;;;;;2107578;28;20020;-67
2021/10/14 02:00:19;;;;;;;17.13;7.45;;;7.20;99.90;;;;;;2104436;28;20028;-69
2021/10/14 02:01:20;;;;;;;15.32;7.22;;;7.20;99.90;;;;;;2088698;28;20044;-68
2021/10/14 02:02:21;;;;;;;16.70;7.88;;;7.20;99.90;;;;;;2104334;28;20024;-69
2021/10/14 02:03:21;;;;;;;17.13;7.22;;;7.30;99.90;;;;;;2105817;28;20490;-68
2021/10/14 02:04:22;;;;;;;12.00;6.57;;;7.40;99.90;;;;;;2102756;28;20091;-68
2021/10/14 02:05:23;;;;;;;13.57;6.97;;;7.40;99.90;;;;;;2105472;28;20099;-69
2021/10/14 02:06:23;;;;;;;17.05;7.10;;;7.50;99.90;;;;;;2100485;28;20012;-68
2021/10/14 02:07:24;;;;;;;14.10;6.80;;;7.50;99.90;;;;;;2105493;28;20530;-68
2021/10/14 02:08:25;;;;;;;14.10;7.05;;;7.50;99.90;;;;;;2099988;28;20081;-68
2021/10/14 02:09:25;;;;;;;18.98;7.47;;;7.60;99.90;;;;;;2102202;28;20484;-68
2021/10/14 02:10:26;;;;;;;22.50;6.90;;;7.50;99.90;;;;;;2101521;28;20043;-68
2021/10/14 02:11:27;;;;;;;14.95;6.72;;;7.50;99.90;;;;;;2100000;28;20070;-68
2021/10/14 02:12:28;;;;;;;13.52;6.55;;;7.60;99.90;;;;;;2097259;28;20031;-68
2021/10/14 02:13:28;;;;;;;12.95;6.88;;;7.60;99.90;;;;;;2096830;28;20036;-68
2021/10/14 02:14:29;;;;;;;14.63;7.45;;;7.50;99.90;;;;;;2096689;28;20652;-68
2021/10/14 02:15:30;;;;;;;17.70;7.72;;;7.50;99.90;;;;;;2097278;28;20400;-68
2021/10/14 02:16:31;;;;;;;13.68;6.97;;;7.50;99.90;;;;;;2097167;28;20104;-69
2021/10/14 02:17:31;;;;;;;13.85;7.43;;;7.40;99.90;;;;;;2097565;28;20028;-68
2021/10/14 02:18:32;;;;;;;13.68;7.25;;;7.40;99.90;;;;;;2103973;28;20050;-68
2021/10/14 02:19:33;;;;;;;15.65;7.05;;;7.30;99.90;;;;;;2104414;28;20031;-68
2021/10/14 02:20:34;;;;;;;13.23;6.93;;;7.30;99.90;;;;;;2105849;28;20020;-69
2021/10/14 02:21:34;;;;;;;14.52;7.07;;;7.30;99.90;;;;;;2105308;28;20077;-68
2021/10/14 02:22:35;;;;;;;14.10;6.65;;;7.20;99.90;;;;;;2105636;28;20016;-69
2021/10/14 02:23:36;;;;;;;18.85;7.55;;;7.20;99.90;;;;;;2103759;28;20080;-69
2021/10/14 02:24:36;;;;;;;17.58;7.68;;;7.10;99.90;;;;;;2097748;28;20021;-68
2021/10/14 02:25:37;;;;;;;15.73;7.05;;;7.10;99.90;;;;;;2105214;28;20072;-69
2021/10/14 02:26:38;;;;;;;10.75;7.05;;;7.10;99.90;;;;;;2103234;28;20020;-68
2021/10/14 02:27:39;;;;;;;18.67;7.50;;;7.10;99.90;;;;;;2103943;28;20695;-68
2021/10/14 02:28:39;;;;;;;16.23;7.47;;;7.10;99.90;;;;;;2102471;28;20012;-69
2021/10/14 02:29:40;;;;;;;17.13;8.35;;;7.10;99.90;;;;;;2104799;28;20032;-68
2021/10/14 02:30:40;;;;;;;16.23;7.85;;;7.10;99.90;;;;;;2104732;28;20023;-69
2021/10/14 02:31:41;;;;;;;12.95;7.85;;;7.10;99.90;;;;;;2105330;28;20421;-68
2021/10/14 02:32:42;;;;;;;14.50;7.88;;;7.10;99.90;;;;;;2105535;28;20020;-68
2021/10/14 02:33:43;;;;;;;15.07;7.43;;;7.00;99.90;;;;;;2105355;28;20024;-68
2021/10/14 02:34:44;;;;;;;12.73;7.25;;;7.00;99.90;;;;;;2102504;28;20023;-68
2021/10/14 02:35:44;;;;;;;14.02;7.30;;;6.90;99.90;;;;;;2104929;28;20031;-68
2021/10/14 02:36:45;;;;;;;20.02;8.15;;;6.90;99.90;;;;;;2105081;28;20555;-68
2021/10/14 02:37:46;;;;;;;15.75;7.85;;;7.00;99.90;;;;;;2105447;28;20028;-68
2021/10/14 02:38:46;;;;;;;17.17;8.30;;;6.90;99.90;;;;;;2102519;28;20027;-68
2021/10/14 02:39:47;;;;;;;19.50;8.20;;;7.00;99.90;;;;;;2105321;28;20016;-68
2021/10/14 02:40:49;;;;;;;20.13;8.13;;;7.00;99.90;;;;;;2100829;28;20027;-69
2021/10/14 02:41:50;;;;;;;15.63;8.02;;;7.00;99.90;;;;;;2102836;28;20044;-69
2021/10/14 02:42:51;;;;;;;15.85;8.23;;;7.00;99.90;;;;;;2097288;28;20021;-68
2021/10/14 02:43:51;;;;;;;15.77;7.40;;;6.90;99.90;;;;;;2102037;28;20671;-68
2021/10/14 02:44:52;;;;;;;13.52;7.93;;;7.00;99.90;;;;;;2102868;28;20028;-68
2021/10/14 02:45:53;;;;;;;13.98;7.80;;;7.00;99.90;;;;;;2103435;28;20031;-69
2021/10/14 02:46:54;;;;;;;18.73;8.60;;;7.10;99.90;;;;;;2102695;28;20071;-68
2021/10/14 02:47:54;;;;;;;17.35;8.43;;;7.10;99.90;;;;;;2097301;28;20028;-68
2021/10/14 02:48:55;;;;;;;15.85;8.10;;;7.10;99.90;;;;;;2100800;28;20046;-69
2021/10/14 02:49:56;;;;;;;17.42;7.57;;;7.20;99.90;;;;;;2104854;28;20534;-68
2021/10/14 02:50:56;;;;;;;22.33;8.25;;;7.30;99.90;;;;;;2096793;28;20111;-69
2021/10/14 02:51:57;;;;;;;15.68;7.68;;;7.30;99.90;;;;;;2089673;28;20590;-68
2021/10/14 02:52:57;;;;;;;16.05;7.68;;;7.40;99.90;;;;;;2094649;28;20020;-68
2021/10/14 02:53:58;;;;;;;19.52;7.22;;;7.40;99.90;;;;;;2104100;28;20016;-68
2021/10/14 02:54:59;;;;;;;16.92;7.68;;;7.40;99.90;;;;;;2105379;28;20020;-68
2021/10/14 02:56:00;;;;;;;17.00;7.78;;;7.50;99.90;;;;;;2097992;28;20020;-68
2021/10/14 02:57:00;;;;;;;16.55;7.20;;;7.50;99.90;;;;;;2098246;28;20017;-68
2021/10/14 02:58:01;;;;;;;13.85;6.90;;;7.50;99.90;;;;;;2105555;28;20468;-69
2021/10/14 02:59:02;;;;;;;12.48;7.50;;;7.50;99.90;;;;;;2101033;28;20017;-69
2021/10/14 03:00:05;;;;;;;16.25;7.25;;;7.40;99.90;;;;;;2097021;28;20054;-68
2021/10/14 03:01:05;;;;;;;13.43;6.32;;;7.40;99.90;;;;;;2100011;28;20144;-69
2021/10/14 03:02:06;;;;;;;17.58;6.72;;;7.40;99.90;;;;;;2096141;28;20443;-69
2021/10/14 03:03:07;;;;;;;14.77;6.53;;;7.50;99.90;;;;;;2103163;28;20104;-68
2021/10/14 03:04:08;;;;;;;13.68;6.78;;;7.60;99.90;;;;;;2105113;28;20574;-68
2021/10/14 03:05:08;;;;;;;13.38;6.90;;;7.70;99.90;;;;;;2105462;28;20044;-69
2021/10/14 03:06:09;;;;;;;16.13;6.85;;;7.80;99.90;;;;;;2100409;28;20070;-69
2021/10/14 03:07:10;;;;;;;13.80;6.60;;;7.80;99.90;;;;;;2096585;28;20021;-69
2021/10/14 03:08:10;;;;;;;15.00;6.68;;;7.90;99.90;;;;;;2096911;28;20118;-69
2021/10/14 03:09:11;;;;;;;14.15;6.38;;;7.90;99.90;;;;;;2095960;28;20488;-68
2021/10/14 03:10:12;;;;;;;14.75;6.78;;;7.90;99.90;;;;;;2104457;28;20024;-68
2021/10/14 03:11:13;;;;;;;16.10;6.13;;;8.00;99.90;;;;;;2097918;28;20100;-68
2021/10/14 03:12:13;;;;;;;17.45;7.00;;;8.00;99.90;;;;;;2105454;28;20035;-68
2021/10/14 03:13:14;;;;;;;21.15;6.68;;;8.00;99.90;;;;;;2105012;28;20043;-68
2021/10/14 03:14:15;;;;;;;13.18;6.25;;;8.00;99.90;;;;;;2105264;28;20028;-68
2021/10/14 03:15:15;;;;;;;13.02;6.22;;;8.00;99.90;;;;;;2105233;28;20035;-68
2021/10/14 03:16:16;;;;;;;14.05;6.25;;;8.10;99.90;;;;;;2101649;28;20039;-68
2021/10/14 03:17:17;;;;;;;10.55;6.15;;;8.10;99.90;;;;;;2097016;28;20498;-68
2021/10/14 03:18:17;;;;;;;14.68;6.50;;;8.00;99.90;;;;;;2096758;28;20027;-68
2021/10/14 03:19:18;;;;;;;15.63;6.80;;;8.00;99.90;;;;;;2099227;28;20054;-69
2021/10/14 03:20:19;;;;;;;19.23;6.82;;;8.00;99.90;;;;;;2104544;28;20035;-68
2021/10/14 03:21:20;;;;;;;10.85;6.47;;;8.00;99.90;;;;;;2104836;28;20032;-68
2021/10/14 03:22:20;;;;;;;14.32;6.85;;;8.00;99.90;;;;;;2105368;28;20055;-68
2021/10/14 03:23:21;;;;;;;16.17;7.18;;;8.00;99.90;;;;;;2100464;28;20083;-68
2021/10/14 03:24:21;;;;;;;15.75;6.97;;;8.10;99.90;;;;;;2101918;28;20020;-68
2021/10/14 03:25:22;;;;;;;15.35;7.22;;;8.10;99.90;;;;;;2097630;28;20024;-68
2021/10/14 03:26:23;;;;;;;18.60;6.93;;;8.10;99.90;;;;;;2101455;28;20399;-68
2021/10/14 03:27:23;;;;;;;17.80;6.68;;;8.10;99.90;;;;;;2104836;28;20042;-67
2021/10/14 03:28:24;;;;;;;17.77;6.90;;;8.20;99.90;;;;;;2100851;28;20036;-68
2021/10/14 03:29:25;;;;;;;16.75;6.53;;;8.20;99.90;;;;;;2097100;28;20021;-68
2021/10/14 03:30:25;;;;;;;12.77;6.38;;;8.20;99.90;;;;;;2096400;28;20035;-68
2021/10/14 03:31:26;;;;;;;13.27;6.55;;;8.20;99.90;;;;;;2096837;28;20021;-68
2021/10/14 03:32:27;;;;;;;15.95;6.78;;;8.20;99.90;;;;;;2096804;28;20496;-68
2021/10/14 03:33:28;;;;;;;15.95;6.57;;;8.20;99.90;;;;;;2096424;28;20070;-68
2021/10/14 03:34:29;;;;;;;14.27;7.15;;;8.20;99.90;;;;;;2096962;28;20028;-68
2021/10/14 03:35:30;;;;;;;18.05;7.35;;;8.20;99.90;;;;;;2100465;28;20028;-68
2021/10/14 03:36:31;;;;;;;14.73;6.97;;;8.20;99.90;;;;;;2104029;28;20491;-67
2021/10/14 03:37:32;;;;;;;13.68;6.22;;;8.20;99.90;;;;;;2102264;28;20030;-68
2021/10/14 03:38:32;;;;;;;13.90;7.07;;;8.20;99.90;;;;;;2109131;28;20097;-68
2021/10/14 03:39:33;;;;;;;15.63;6.68;;;8.30;99.90;;;;;;2104693;28;20021;-68
2021/10/14 03:40:34;;;;;;;16.20;6.70;;;8.30;99.90;;;;;;2104409;28;20044;-68
2021/10/14 03:41:34;;;;;;;18.80;6.82;;;8.30;99.90;;;;;;2103956;28;20095;-68
2021/10/14 03:42:35;;;;;;;13.80;6.28;;;8.30;99.90;;;;;;2097173;28;20957;-68
2021/10/14 03:43:36;;;;;;;11.98;6.75;;;8.40;99.90;;;;;;2104078;28;20016;-68
2021/10/14 03:44:36;;;;;;;11.30;6.47;;;8.40;99.90;;;;;;2105055;28;20042;-68
2021/10/14 03:45:37;;;;;;;16.10;6.40;;;8.40;99.90;;;;;;2104740;28;20431;-67
2021/10/14 03:46:38;;;;;;;13.57;6.40;;;8.40;99.90;;;;;;2102281;28;21345;-68
2021/10/14 03:47:38;;;;;;;13.63;5.95;;;8.40;99.90;;;;;;2103535;28;20016;-67
2021/10/14 03:48:39;;;;;;;14.38;6.63;;;8.40;99.90;;;;;;2105769;28;20103;-68
2021/10/14 03:49:40;;;;;;;12.05;6.55;;;8.30;99.90;;;;;;2106780;28;20019;-68
2021/10/14 03:50:41;;;;;;;15.13;6.68;;;8.30;99.90;;;;;;2103630;28;20066;-68
2021/10/14 03:51:42;;;;;;;10.43;5.60;;;8.30;99.90;;;;;;2097753;28;20017;-68
2021/10/14 03:52:42;;;;;;;18.15;6.70;;;8.30;99.90;;;;;;2098150;28;20029;-68
2021/10/14 03:53:43;;;;;;;17.50;6.20;;;8.30;99.90;;;;;;2100497;28;20388;-68
2021/10/14 03:54:44;;;;;;;17.33;6.10;;;8.30;99.90;;;;;;2106957;28;20119;-68
2021/10/14 03:55:44;;;;;;;15.85;6.22;;;8.40;99.90;;;;;;2102716;28;20077;-67
2021/10/14 03:56:45;;;;;;;14.70;6.47;;;8.30;99.90;;;;;;2105946;28;20069;-67
2021/10/14 03:57:46;;;;;;;16.73;5.95;;;8.40;99.90;;;;;;2106343;28;20024;-68
2021/10/14 03:58:46;;;;;;;12.43;5.60;;;8.40;99.90;;;;;;2106550;28;20027;-68
2021/10/14 03:59:47;;;;;;;9.15;4.43;;;8.40;99.90;;;;;;2104136;28;20395;-68
2021/10/14 04:00:48;;;;;;;13.38;5.78;;;8.40;99.90;;;;;;2106212;28;20024;-68
2021/10/14 04:01:48;;;;;;;11.20;5.10;;;8.40;99.90;;;;;;2115120;28;20012;-68
2021/10/14 04:02:49;;;;;;;12.75;5.45;;;8.40;99.90;;;;;;2114799;28;20030;-68
2021/10/14 04:03:50;;;;;;;16.88;5.72;;;8.50;99.90;;;;;;2115178;28;20027;-68
2021/10/14 04:04:50;;;;;;;12.18;5.13;;;8.40;99.90;;;;;;2112096;28;20081;-68
2021/10/14 04:05:51;;;;;;;11.25;4.72;;;8.40;99.90;;;;;;2114589;28;20092;-68
2021/10/14 04:06:52;;;;;;;11.95;5.10;;;8.40;99.90;;;;;;2115061;28;20611;-68
2021/10/14 04:07:52;;;;;;;13.20;4.90;;;8.40;99.90;;;;;;2114327;28;20023;-69
2021/10/14 04:08:53;;;;;;;14.07;5.25;;;8.50;99.90;;;;;;2115239;28;20685;-69
2021/10/14 04:09:54;;;;;;;11.23;5.07;;;8.50;99.90;;;;;;2114840;28;20430;-68
2021/10/14 04:10:54;;;;;;;10.55;5.00;;;8.50;99.90;;;;;;2114851;28;20437;-68
2021/10/14 04:11:55;;;;;;;13.27;5.55;;;8.50;99.90;;;;;;2112229;28;20026;-68
2021/10/14 04:12:56;;;;;;;10.73;5.07;;;8.50;99.90;;;;;;2110726;28;20080;-68
2021/10/14 04:13:56;;;;;;;13.05;4.95;;;8.50;99.90;;;;;;2110859;28;20030;-68
2021/10/14 04:14:57;;;;;;;10.43;4.60;;;8.50;99.90;;;;;;2112144;28;20073;-68
2021/10/14 04:15:58;;;;;;;13.35;4.93;;;8.50;99.90;;;;;;2113775;28;20095;-68
2021/10/14 04:16:58;;;;;;;11.45;5.00;;;8.50;99.90;;;;;;2115088;28;20023;-68
2021/10/14 04:17:59;;;;;;;12.57;5.55;;;8.50;99.90;;;;;;2109729;28;20015;-68
2021/10/14 04:19:00;;;;;;;13.13;5.30;;;8.50;99.90;;;;;;2115122;28;20035;-68
2021/10/14 04:20:01;;;;;;;13.50;5.68;;;8.50;99.90;;;;;;2114743;28;20019;-68
2021/10/14 04:21:02;;;;;;;20.15;5.68;;;8.50;99.90;;;;;;2114626;28;20042;-68
2021/10/14 04:22:03;;;;;;;13.00;5.90;;;8.50;99.90;;;;;;2115120;28;20145;-68
2021/10/14 04:23:03;;;;;;;12.88;5.22;;;8.50;99.90;;;;;;2112766;28;20093;-68
2021/10/14 04:24:04;;;;;;;13.40;4.97;;;8.50;99.90;;;;;;2111849;28;20026;-68
2021/10/14 04:25:06;;;;;;;16.00;6.18;;;8.50;99.90;;;;;;2103379;28;20017;-69
2021/10/14 04:26:06;;;;;;;10.90;5.18;;;8.50;99.90;;;;;;2100120;28;20028;-68
2021/10/14 04:27:07;;;;;;;16.48;5.25;;;8.50;99.90;;;;;;2113889;28;20034;-68
2021/10/14 04:28:08;;;;;;;13.77;5.75;;;8.50;99.90;;;;;;2110821;28;20021;-68
2021/10/14 04:29:09;;;;;;;17.63;5.32;;;8.50;99.90;;;;;;2113303;28;20115;-68
2021/10/14 04:30:10;;;;;;;12.13;5.20;;;8.50;99.90;;;;;;2113789;28;20398;-68
2021/10/14 04:31:11;;;;;;;19.92;5.57;;;8.50;99.90;;;;;;2114634;28;20365;-68
2021/10/14 04:32:11;;;;;;;13.25;6.15;;;8.50;99.90;;;;;;2107460;28;20102;-68
2021/10/14 04:33:12;;;;;;;11.15;5.60;;;8.60;99.90;;;;;;2106091;28;20424;-68
2021/10/14 04:34:13;;;;;;;13.77;5.55;;;8.60;99.90;;;;;;2106616;28;20126;-68
2021/10/14 04:35:14;;;;;;;11.52;5.50;;;8.60;99.90;;;;;;2106060;28;20020;-68
2021/10/14 04:36:15;;;;;;;16.38;5.88;;;8.60;99.90;;;;;;2097551;28;20028;-68
2021/10/14 04:37:15;;;;;;;15.20;6.00;;;8.60;99.90;;;;;;2102179;28;20023;-68
2021/10/14 04:38:17;;;;;;;18.27;5.45;;;8.60;99.90;;;;;;2097900;28;20037;-69
2021/10/14 04:39:18;;;;;;;15.85;5.35;;;8.60;99.90;;;;;;2101082;28;20021;-69
2021/10/14 04:40:18;;;;;;;11.57;5.22;;;8.60;99.90;;;;;;2106133;28;20035;-69
2021/10/14 04:41:19;;;;;;;10.57;5.05;;;8.60;99.90;;;;;;2106524;28;20706;-69
2021/10/14 04:42:20;;;;;;;16.23;5.68;;;8.60;99.90;;;;;;2112710;28;20024;-69
2021/10/14 04:43:23;;;;;;;14.00;5.40;;;8.60;99.90;;;;;;2114550;28;20020;-69
2021/10/14 04:44:23;;;;;;;13.77;5.68;;;8.50;99.90;;;;;;2112746;28;20020;-69
2021/10/14 04:45:24;;;;;;;15.25;5.95;;;8.60;99.90;;;;;;2111562;28;20020;-69
2021/10/14 04:46:25;;;;;;;14.40;5.40;;;8.50;99.90;;;;;;2114679;28;20100;-69
2021/10/14 04:47:25;;;;;;;17.75;5.38;;;8.50;99.90;;;;;;2105474;28;20020;-69
2021/10/14 04:48:26;;;;;;;12.68;5.43;;;8.50;99.90;;;;;;2105150;28;20043;-69
2021/10/14 04:49:27;;;;;;;13.30;4.93;;;8.50;99.90;;;;;;2111885;28;20019;-69
2021/10/14 04:50:28;;;;;;;13.98;5.50;;;8.50;99.90;;;;;;2110491;28;20438;-69
2021/10/14 04:51:28;;;;;;;16.08;5.53;;;8.50;99.90;;;;;;2113094;28;20031;-69
2021/10/14 04:52:29;;;;;;;9.90;5.35;;;8.40;99.90;;;;;;2108172;28;20070;-69
2021/10/14 04:53:30;;;;;;;14.98;5.40;;;8.50;99.90;;;;;;2106468;28;20506;-69
2021/10/14 04:54:30;;;;;;;14.98;5.60;;;8.50;99.90;;;;;;2114788;28;20537;-69
2021/10/14 04:55:31;;;;;;;17.45;5.50;;;8.50;99.90;;;;;;2110610;28;20022;-69
2021/10/14 04:56:32;;;;;;;11.60;5.15;;;8.50;99.90;;;;;;2114568;28;20038;-68
2021/10/14 04:57:33;;;;;;;14.85;5.30;;;8.50;99.90;;;;;;2114315;28;20064;-68
2021/10/14 04:58:34;;;;;;;12.45;5.13;;;8.50;99.90;;;;;;2113761;28;20023;-68
2021/10/14 04:59:34;;;;;;;15.48;4.82;;;8.50;99.90;;;;;;2106332;28;20028;-68
2021/10/14 05:00:35;;;;;;;14.38;5.00;;;8.50;99.90;;;;;;2096789;28;20047;-68
2021/10/14 05:01:36;;;;;;;11.15;5.00;;;8.50;99.90;;;;;;2096995;28;20075;-68
2021/10/14 05:02:37;;;;;;;12.07;5.28;;;8.50;99.90;;;;;;2108608;28;20052;-68
2021/10/14 05:03:37;;;;;;;10.05;4.95;;;8.50;99.90;;;;;;2114620;28;20019;-69
2021/10/14 05:04:38;;;;;;;11.57;5.15;;;8.40;99.90;;;;;;2107016;28;20016;-68
2021/10/14 05:05:39;;;;;;;14.13;5.18;;;8.40;99.90;;;;;;2113958;28;20407;-68
2021/10/14 05:06:39;;;;;;;17.95;5.50;;;8.40;99.90;;;;;;2105878;28;20043;-68
2021/10/14 05:07:40;;;;;;;12.60;4.85;;;8.40;99.90;;;;;;2114060;28;20022;-69
2021/10/14 05:08:41;;;;;;;17.25;4.75;;;8.40;99.90;;;;;;2114574;28;20154;-68
2021/10/14 05:09:41;;;;;;;9.43;4.70;;;8.40;99.90;;;;;;2110759;28;20085;-68
2021/10/14 05:10:42;;;;;;;16.70;4.65;;;8.40;99.90;;;;;;2106414;28;20451;-69
2021/10/14 05:11:43;;;;;;;14.05;5.53;;;8.40;99.90;;;;;;2105724;28;20028;-68
2021/10/14 05:12:44;;;;;;;10.85;4.80;;;8.40;99.90;;;;;;2109953;28;20022;-69
2021/10/14 05:13:44;;;;;;;14.02;5.45;;;8.40;99.90;;;;;;2103582;28;20039;-68
2021/10/14 05:14:45;;;;;;;18.30;5.85;;;8.30;99.90;;;;;;2105134;28;20026;-69
2021/10/14 05:15:46;;;;;;;17.27;5.40;;;8.30;99.90;;;;;;2114533;28;20478;-69
2021/10/14 05:16:46;;;;;;;14.80;6.00;;;8.30;99.90;;;;;;2108706;28;20020;-69